sensor_id;sensor_type;location;lat;lon;timestamp;P1;durP1;ratioP1;P2;durP2;ratioP2
62123;SDS011;48110;47.532;19.078;2023-06-19T00:00:09;9.30;;;6.60;;
62123;SDS011;48110;47.532;19.078;2023-06-19T00:03:20;11.32;;;6.50;;
62123;SDS011;48110;47.532;19.078;2023-06-19T00:06:26;8.13;;;6.62;;
62123;SDS011;48110;47.532;19.078;2023-06-19T00:09:34;8.18;;;6.37;;
62123;SDS011;48110;47.532;19.078;2023-06-19T00:12:40;7.97;;;6.28;;
62123;SDS011;48110;47.532;19.078;2023-06-19T00:15:49;9.07;;;6.03;;
62123;SDS011;48110;47.532;19.078;2023-06-19T00:18:56;7.75;;;6.53;;
62123;SDS011;48110;47.532;19.078;2023-06-19T00:22:05;9.90;;;6.35;;
62123;SDS011;48110;47.532;19.078;2023-06-19T00:25:10;8.35;;;6.93;;
62123;SDS011;48110;47.532;19.078;2023-06-19T00:28:18;8.07;;;6.32;;
62123;SDS011;48110;47.532;19.078;2023-06-19T00:31:27;9.00;;;6.50;;
62123;SDS011;48110;47.532;19.078;2023-06-19T00:34:39;8.88;;;6.32;;
62123;SDS011;48110;47.532;19.078;2023-06-19T00:37:48;10.88;;;6.82;;
62123;SDS011;48110;47.532;19.078;2023-06-19T00:40:54;7.78;;;6.57;;
62123;SDS011;48110;47.532;19.078;2023-06-19T00:44:00;8.38;;;6.68;;
62123;SDS011;48110;47.532;19.078;2023-06-19T00:47:08;9.52;;;6.90;;
62123;SDS011;48110;47.532;19.078;2023-06-19T00:50:16;11.02;;;7.50;;
62123;SDS011;48110;47.532;19.078;2023-06-19T00:53:23;10.95;;;7.53;;
62123;SDS011;48110;47.532;19.078;2023-06-19T00:56:29;8.13;;;6.72;;
62123;SDS011;48110;47.532;19.078;2023-06-19T00:59:37;10.70;;;7.40;;
62123;SDS011;48110;47.532;19.078;2023-06-19T01:02:46;10.02;;;7.30;;
62123;SDS011;48110;47.532;19.078;2023-06-19T01:05:54;11.02;;;7.18;;
62123;SDS011;48110;47.532;19.078;2023-06-19T01:09:02;10.73;;;7.18;;
62123;SDS011;48110;47.532;19.078;2023-06-19T01:12:18;9.82;;;7.28;;
62123;SDS011;48110;47.532;19.078;2023-06-19T01:15:33;7.50;;;6.72;;
62123;SDS011;48110;47.532;19.078;2023-06-19T01:18:44;11.12;;;7.57;;
62123;SDS011;48110;47.532;19.078;2023-06-19T01:21:51;9.15;;;7.22;;
62123;SDS011;48110;47.532;19.078;2023-06-19T01:24:58;8.55;;;6.95;;
62123;SDS011;48110;47.532;19.078;2023-06-19T01:28:07;7.82;;;6.97;;
62123;SDS011;48110;47.532;19.078;2023-06-19T01:31:25;10.00;;;7.22;;
62123;SDS011;48110;47.532;19.078;2023-06-19T01:34:39;9.75;;;7.12;;
62123;SDS011;48110;47.532;19.078;2023-06-19T01:37:47;12.50;;;7.10;;
62123;SDS011;48110;47.532;19.078;2023-06-19T01:40:54;10.55;;;7.25;;
62123;SDS011;48110;47.532;19.078;2023-06-19T01:44:01;11.15;;;7.47;;
62123;SDS011;48110;47.532;19.078;2023-06-19T01:47:11;11.48;;;7.20;;
62123;SDS011;48110;47.532;19.078;2023-06-19T01:50:23;10.32;;;7.12;;
62123;SDS011;48110;47.532;19.078;2023-06-19T01:53:28;9.30;;;6.60;;
62123;SDS011;48110;47.532;19.078;2023-06-19T01:56:38;8.52;;;7.30;;
62123;SDS011;48110;47.532;19.078;2023-06-19T01:59:44;11.65;;;6.87;;
62123;SDS011;48110;47.532;19.078;2023-06-19T02:02:53;10.93;;;6.97;;
62123;SDS011;48110;47.532;19.078;2023-06-19T02:06:00;7.78;;;6.55;;
62123;SDS011;48110;47.532;19.078;2023-06-19T02:09:08;9.40;;;7.10;;
62123;SDS011;48110;47.532;19.078;2023-06-19T02:12:15;9.43;;;7.53;;
62123;SDS011;48110;47.532;19.078;2023-06-19T02:15:20;10.60;;;7.18;;
62123;SDS011;48110;47.532;19.078;2023-06-19T02:18:27;8.50;;;7.03;;
62123;SDS011;48110;47.532;19.078;2023-06-19T02:21:35;12.00;;;7.35;;
62123;SDS011;48110;47.532;19.078;2023-06-19T02:24:42;9.30;;;7.05;;
62123;SDS011;48110;47.532;19.078;2023-06-19T02:27:52;10.38;;;7.22;;
62123;SDS011;48110;47.532;19.078;2023-06-19T02:30:59;12.30;;;7.37;;
62123;SDS011;48110;47.532;19.078;2023-06-19T02:37:15;8.90;;;7.20;;
62123;SDS011;48110;47.532;19.078;2023-06-19T02:40:22;9.05;;;7.25;;
62123;SDS011;48110;47.532;19.078;2023-06-19T02:43:31;8.32;;;7.15;;
62123;SDS011;48110;47.532;19.078;2023-06-19T02:46:42;8.52;;;7.07;;
62123;SDS011;48110;47.532;19.078;2023-06-19T02:49:48;8.27;;;7.35;;
62123;SDS011;48110;47.532;19.078;2023-06-19T02:52:55;8.30;;;7.25;;
62123;SDS011;48110;47.532;19.078;2023-06-19T02:56:00;10.80;;;7.45;;
62123;SDS011;48110;47.532;19.078;2023-06-19T02:59:08;9.85;;;7.47;;
62123;SDS011;48110;47.532;19.078;2023-06-19T03:02:13;9.98;;;8.20;;
62123;SDS011;48110;47.532;19.078;2023-06-19T03:05:20;9.38;;;8.35;;
62123;SDS011;48110;47.532;19.078;2023-06-19T03:08:28;10.88;;;8.23;;
62123;SDS011;48110;47.532;19.078;2023-06-19T03:11:37;9.68;;;7.60;;
62123;SDS011;48110;47.532;19.078;2023-06-19T03:17:54;9.07;;;8.05;;
62123;SDS011;48110;47.532;19.078;2023-06-19T03:21:00;11.65;;;8.48;;
62123;SDS011;48110;47.532;19.078;2023-06-19T03:24:07;10.68;;;8.27;;
62123;SDS011;48110;47.532;19.078;2023-06-19T03:27:16;10.18;;;8.10;;
62123;SDS011;48110;47.532;19.078;2023-06-19T03:30:22;12.30;;;8.18;;
62123;SDS011;48110;47.532;19.078;2023-06-19T03:33:28;12.23;;;8.43;;
62123;SDS011;48110;47.532;19.078;2023-06-19T03:36:36;8.63;;;7.72;;
62123;SDS011;48110;47.532;19.078;2023-06-19T03:39:43;9.55;;;7.70;;
62123;SDS011;48110;47.532;19.078;2023-06-19T03:42:51;9.25;;;7.30;;
62123;SDS011;48110;47.532;19.078;2023-06-19T03:45:59;14.68;;;8.05;;
62123;SDS011;48110;47.532;19.078;2023-06-19T03:49:06;16.67;;;7.65;;
62123;SDS011;48110;47.532;19.078;2023-06-19T03:52:15;13.43;;;7.90;;
62123;SDS011;48110;47.532;19.078;2023-06-19T03:55:21;10.05;;;7.40;;
62123;SDS011;48110;47.532;19.078;2023-06-19T03:58:27;10.45;;;7.45;;
62123;SDS011;48110;47.532;19.078;2023-06-19T04:01:33;12.95;;;7.60;;
62123;SDS011;48110;47.532;19.078;2023-06-19T04:04:41;8.88;;;7.22;;
62123;SDS011;48110;47.532;19.078;2023-06-19T04:07:46;9.07;;;7.15;;
62123;SDS011;48110;47.532;19.078;2023-06-19T04:10:53;10.02;;;7.78;;
62123;SDS011;48110;47.532;19.078;2023-06-19T04:13:57;11.90;;;8.25;;
62123;SDS011;48110;47.532;19.078;2023-06-19T04:17:07;10.50;;;7.45;;
62123;SDS011;48110;47.532;19.078;2023-06-19T04:20:16;10.65;;;7.80;;
62123;SDS011;48110;47.532;19.078;2023-06-19T04:23:25;12.07;;;7.70;;
62123;SDS011;48110;47.532;19.078;2023-06-19T04:26:30;15.13;;;8.15;;
62123;SDS011;48110;47.532;19.078;2023-06-19T04:29:37;9.35;;;7.93;;
62123;SDS011;48110;47.532;19.078;2023-06-19T04:32:42;11.00;;;8.25;;
62123;SDS011;48110;47.532;19.078;2023-06-19T04:35:50;32.63;;;8.80;;
62123;SDS011;48110;47.532;19.078;2023-06-19T04:38:58;14.48;;;7.87;;
62123;SDS011;48110;47.532;19.078;2023-06-19T04:42:05;14.50;;;7.97;;
62123;SDS011;48110;47.532;19.078;2023-06-19T04:45:11;9.57;;;8.00;;
62123;SDS011;48110;47.532;19.078;2023-06-19T04:48:18;14.18;;;7.25;;
62123;SDS011;48110;47.532;19.078;2023-06-19T04:51:24;23.83;;;8.43;;
62123;SDS011;48110;47.532;19.078;2023-06-19T04:54:35;10.13;;;7.28;;
62123;SDS011;48110;47.532;19.078;2023-06-19T04:57:42;9.85;;;7.35;;
62123;SDS011;48110;47.532;19.078;2023-06-19T05:00:48;9.45;;;7.37;;
62123;SDS011;48110;47.532;19.078;2023-06-19T05:03:56;13.15;;;7.45;;
62123;SDS011;48110;47.532;19.078;2023-06-19T05:07:00;10.20;;;7.15;;
62123;SDS011;48110;47.532;19.078;2023-06-19T05:10:07;11.50;;;7.22;;
62123;SDS011;48110;47.532;19.078;2023-06-19T05:13:13;9.02;;;6.97;;
62123;SDS011;48110;47.532;19.078;2023-06-19T05:16:18;8.90;;;6.28;;
62123;SDS011;48110;47.532;19.078;2023-06-19T05:19:25;9.88;;;6.18;;
62123;SDS011;48110;47.532;19.078;2023-06-19T05:22:31;8.27;;;6.37;;
62123;SDS011;48110;47.532;19.078;2023-06-19T05:25:39;13.40;;;6.80;;
62123;SDS011;48110;47.532;19.078;2023-06-19T05:28:42;10.32;;;6.90;;
62123;SDS011;48110;47.532;19.078;2023-06-19T05:31:46;9.55;;;6.55;;
62123;SDS011;48110;47.532;19.078;2023-06-19T05:34:50;11.45;;;6.80;;
62123;SDS011;48110;47.532;19.078;2023-06-19T05:37:57;10.25;;;6.05;;
62123;SDS011;48110;47.532;19.078;2023-06-19T05:41:01;11.90;;;7.50;;
62123;SDS011;48110;47.532;19.078;2023-06-19T05:44:07;12.23;;;6.97;;
62123;SDS011;48110;47.532;19.078;2023-06-19T05:47:10;10.30;;;6.50;;
62123;SDS011;48110;47.532;19.078;2023-06-19T05:50:14;8.07;;;6.55;;
62123;SDS011;48110;47.532;19.078;2023-06-19T05:53:17;14.20;;;6.78;;
62123;SDS011;48110;47.532;19.078;2023-06-19T05:56:21;21.02;;;7.07;;
62123;SDS011;48110;47.532;19.078;2023-06-19T05:59:24;11.18;;;6.37;;
62123;SDS011;48110;47.532;19.078;2023-06-19T06:02:29;9.55;;;6.28;;
62123;SDS011;48110;47.532;19.078;2023-06-19T06:05:34;10.73;;;6.65;;
62123;SDS011;48110;47.532;19.078;2023-06-19T06:08:40;16.20;;;6.18;;
62123;SDS011;48110;47.532;19.078;2023-06-19T06:11:44;11.00;;;6.12;;
62123;SDS011;48110;47.532;19.078;2023-06-19T06:14:49;13.60;;;6.57;;
62123;SDS011;48110;47.532;19.078;2023-06-19T06:17:53;16.58;;;6.45;;
62123;SDS011;48110;47.532;19.078;2023-06-19T06:20:56;12.93;;;6.80;;
62123;SDS011;48110;47.532;19.078;2023-06-19T06:24:02;17.73;;;6.60;;
62123;SDS011;48110;47.532;19.078;2023-06-19T06:27:06;12.75;;;7.00;;
62123;SDS011;48110;47.532;19.078;2023-06-19T06:30:11;9.25;;;6.75;;
62123;SDS011;48110;47.532;19.078;2023-06-19T06:33:16;11.38;;;7.10;;
62123;SDS011;48110;47.532;19.078;2023-06-19T06:36:21;12.10;;;7.00;;
62123;SDS011;48110;47.532;19.078;2023-06-19T06:39:37;10.63;;;5.85;;
62123;SDS011;48110;47.532;19.078;2023-06-19T06:42:42;13.18;;;7.32;;
62123;SDS011;48110;47.532;19.078;2023-06-19T06:45:46;15.18;;;7.00;;
62123;SDS011;48110;47.532;19.078;2023-06-19T06:48:50;9.00;;;7.40;;
62123;SDS011;48110;47.532;19.078;2023-06-19T06:51:54;10.25;;;6.20;;
62123;SDS011;48110;47.532;19.078;2023-06-19T06:55:00;15.02;;;6.53;;
62123;SDS011;48110;47.532;19.078;2023-06-19T06:58:04;11.85;;;6.47;;
62123;SDS011;48110;47.532;19.078;2023-06-19T07:01:08;11.27;;;6.62;;
62123;SDS011;48110;47.532;19.078;2023-06-19T07:04:11;13.10;;;6.18;;
62123;SDS011;48110;47.532;19.078;2023-06-19T07:07:15;13.62;;;6.97;;
62123;SDS011;48110;47.532;19.078;2023-06-19T07:10:19;8.48;;;6.37;;
62123;SDS011;48110;47.532;19.078;2023-06-19T07:13:25;17.17;;;6.93;;
62123;SDS011;48110;47.532;19.078;2023-06-19T07:16:29;9.85;;;6.35;;
62123;SDS011;48110;47.532;19.078;2023-06-19T07:19:33;12.55;;;6.62;;
62123;SDS011;48110;47.532;19.078;2023-06-19T07:22:37;12.05;;;6.18;;
62123;SDS011;48110;47.532;19.078;2023-06-19T07:25:41;19.10;;;6.68;;
62123;SDS011;48110;47.532;19.078;2023-06-19T07:28:45;13.65;;;6.62;;
62123;SDS011;48110;47.532;19.078;2023-06-19T07:31:48;11.98;;;6.15;;
62123;SDS011;48110;47.532;19.078;2023-06-19T07:34:52;7.87;;;6.12;;
62123;SDS011;48110;47.532;19.078;2023-06-19T07:37:56;9.70;;;6.15;;
62123;SDS011;48110;47.532;19.078;2023-06-19T07:40:59;8.80;;;5.97;;
62123;SDS011;48110;47.532;19.078;2023-06-19T07:44:04;11.20;;;5.87;;
62123;SDS011;48110;47.532;19.078;2023-06-19T07:47:08;10.35;;;5.80;;
62123;SDS011;48110;47.532;19.078;2023-06-19T07:50:12;18.20;;;6.00;;
62123;SDS011;48110;47.532;19.078;2023-06-19T07:53:16;19.40;;;6.18;;
62123;SDS011;48110;47.532;19.078;2023-06-19T07:56:19;19.10;;;6.30;;
62123;SDS011;48110;47.532;19.078;2023-06-19T07:59:22;11.20;;;5.62;;
62123;SDS011;48110;47.532;19.078;2023-06-19T08:02:26;14.13;;;5.00;;
62123;SDS011;48110;47.532;19.078;2023-06-19T08:05:30;21.15;;;6.00;;
62123;SDS011;48110;47.532;19.078;2023-06-19T08:08:34;14.05;;;6.35;;
62123;SDS011;48110;47.532;19.078;2023-06-19T08:11:39;16.08;;;5.53;;
62123;SDS011;48110;47.532;19.078;2023-06-19T08:14:42;7.22;;;5.10;;
62123;SDS011;48110;47.532;19.078;2023-06-19T08:17:48;6.25;;;4.97;;
62123;SDS011;48110;47.532;19.078;2023-06-19T08:20:52;11.75;;;5.22;;
62123;SDS011;48110;47.532;19.078;2023-06-19T08:23:56;14.73;;;4.57;;
62123;SDS011;48110;47.532;19.078;2023-06-19T08:27:01;10.88;;;4.37;;
62123;SDS011;48110;47.532;19.078;2023-06-19T08:30:06;8.45;;;4.40;;
62123;SDS011;48110;47.532;19.078;2023-06-19T08:33:11;8.88;;;4.57;;
62123;SDS011;48110;47.532;19.078;2023-06-19T08:36:17;5.68;;;4.40;;
62123;SDS011;48110;47.532;19.078;2023-06-19T08:39:20;11.23;;;4.12;;
62123;SDS011;48110;47.532;19.078;2023-06-19T08:42:25;8.45;;;4.35;;
62123;SDS011;48110;47.532;19.078;2023-06-19T08:45:28;12.63;;;4.95;;
62123;SDS011;48110;47.532;19.078;2023-06-19T08:48:36;11.07;;;4.40;;
62123;SDS011;48110;47.532;19.078;2023-06-19T08:51:41;9.83;;;4.33;;
62123;SDS011;48110;47.532;19.078;2023-06-19T08:54:46;7.30;;;4.47;;
62123;SDS011;48110;47.532;19.078;2023-06-19T08:57:49;61.03;;;6.45;;
62123;SDS011;48110;47.532;19.078;2023-06-19T09:00:57;10.32;;;4.10;;
62123;SDS011;48110;47.532;19.078;2023-06-19T09:04:09;5.28;;;3.90;;
62123;SDS011;48110;47.532;19.078;2023-06-19T09:07:15;8.43;;;3.83;;
62123;SDS011;48110;47.532;19.078;2023-06-19T09:10:18;9.85;;;4.25;;
62123;SDS011;48110;47.532;19.078;2023-06-19T09:13:23;5.05;;;4.25;;
62123;SDS011;48110;47.532;19.078;2023-06-19T09:16:41;7.30;;;4.12;;
62123;SDS011;48110;47.532;19.078;2023-06-19T09:19:52;6.37;;;4.00;;
62123;SDS011;48110;47.532;19.078;2023-06-19T09:22:59;7.40;;;3.87;;
62123;SDS011;48110;47.532;19.078;2023-06-19T09:26:04;5.75;;;3.87;;
62123;SDS011;48110;47.532;19.078;2023-06-19T09:29:18;13.73;;;4.05;;
62123;SDS011;48110;47.532;19.078;2023-06-19T09:32:27;10.63;;;3.70;;
62123;SDS011;48110;47.532;19.078;2023-06-19T09:35:31;8.13;;;3.83;;
62123;SDS011;48110;47.532;19.078;2023-06-19T09:38:37;14.02;;;3.60;;
62123;SDS011;48110;47.532;19.078;2023-06-19T09:44:50;15.57;;;3.85;;
62123;SDS011;48110;47.532;19.078;2023-06-19T09:47:59;78.57;;;6.72;;
62123;SDS011;48110;47.532;19.078;2023-06-19T09:57:34;6.25;;;3.95;;
62123;SDS011;48110;47.532;19.078;2023-06-19T10:00:41;10.15;;;3.72;;
62123;SDS011;48110;47.532;19.078;2023-06-19T10:03:46;6.70;;;3.65;;
62123;SDS011;48110;47.532;19.078;2023-06-19T10:06:50;7.75;;;3.75;;
62123;SDS011;48110;47.532;19.078;2023-06-19T10:09:57;9.00;;;3.92;;
62123;SDS011;48110;47.532;19.078;2023-06-19T10:13:12;10.10;;;4.55;;
62123;SDS011;48110;47.532;19.078;2023-06-19T10:16:21;9.10;;;4.30;;
62123;SDS011;48110;47.532;19.078;2023-06-19T10:19:30;4.90;;;3.30;;
62123;SDS011;48110;47.532;19.078;2023-06-19T10:22:37;16.75;;;3.75;;
62123;SDS011;48110;47.532;19.078;2023-06-19T10:25:41;5.65;;;3.75;;
62123;SDS011;48110;47.532;19.078;2023-06-19T10:28:49;7.35;;;3.95;;
62123;SDS011;48110;47.532;19.078;2023-06-19T10:31:52;5.07;;;3.97;;
62123;SDS011;48110;47.532;19.078;2023-06-19T10:34:57;9.20;;;3.97;;
62123;SDS011;48110;47.532;19.078;2023-06-19T10:38:00;9.88;;;4.50;;
62123;SDS011;48110;47.532;19.078;2023-06-19T10:41:05;8.95;;;3.72;;
62123;SDS011;48110;47.532;19.078;2023-06-19T10:44:08;7.32;;;4.62;;
62123;SDS011;48110;47.532;19.078;2023-06-19T10:47:16;9.98;;;4.85;;
62123;SDS011;48110;47.532;19.078;2023-06-19T10:50:19;9.38;;;4.22;;
62123;SDS011;48110;47.532;19.078;2023-06-19T10:53:25;7.30;;;4.00;;
62123;SDS011;48110;47.532;19.078;2023-06-19T10:56:29;7.37;;;3.77;;
62123;SDS011;48110;47.532;19.078;2023-06-19T10:59:33;8.85;;;4.15;;
62123;SDS011;48110;47.532;19.078;2023-06-19T11:02:40;7.43;;;3.70;;
62123;SDS011;48110;47.532;19.078;2023-06-19T11:05:47;5.70;;;3.85;;
62123;SDS011;48110;47.532;19.078;2023-06-19T11:08:51;10.45;;;4.05;;
62123;SDS011;48110;47.532;19.078;2023-06-19T11:11:56;8.27;;;4.22;;
62123;SDS011;48110;47.532;19.078;2023-06-19T11:15:02;7.45;;;4.20;;
62123;SDS011;48110;47.532;19.078;2023-06-19T11:18:06;5.87;;;4.00;;
62123;SDS011;48110;47.532;19.078;2023-06-19T11:21:09;8.43;;;3.95;;
62123;SDS011;48110;47.532;19.078;2023-06-19T11:24:14;11.30;;;5.47;;
62123;SDS011;48110;47.532;19.078;2023-06-19T11:27:22;9.48;;;3.97;;
62123;SDS011;48110;47.532;19.078;2023-06-19T11:30:31;7.32;;;4.10;;
62123;SDS011;48110;47.532;19.078;2023-06-19T11:33:35;5.40;;;4.10;;
62123;SDS011;48110;47.532;19.078;2023-06-19T11:36:41;7.18;;;4.10;;
62123;SDS011;48110;47.532;19.078;2023-06-19T11:39:45;9.48;;;3.70;;
62123;SDS011;48110;47.532;19.078;2023-06-19T11:42:51;5.22;;;3.90;;
62123;SDS011;48110;47.532;19.078;2023-06-19T11:46:05;6.47;;;4.03;;
62123;SDS011;48110;47.532;19.078;2023-06-19T11:49:17;6.03;;;3.80;;
62123;SDS011;48110;47.532;19.078;2023-06-19T11:52:21;10.27;;;4.30;;
62123;SDS011;48110;47.532;19.078;2023-06-19T11:55:25;9.65;;;3.78;;
62123;SDS011;48110;47.532;19.078;2023-06-19T11:58:29;8.43;;;3.85;;
62123;SDS011;48110;47.532;19.078;2023-06-19T12:01:32;13.18;;;4.30;;
62123;SDS011;48110;47.532;19.078;2023-06-19T12:04:37;10.38;;;4.03;;
62123;SDS011;48110;47.532;19.078;2023-06-19T12:07:40;5.62;;;3.80;;
62123;SDS011;48110;47.532;19.078;2023-06-19T12:10:43;6.15;;;3.65;;
62123;SDS011;48110;47.532;19.078;2023-06-19T12:13:46;4.50;;;3.80;;
62123;SDS011;48110;47.532;19.078;2023-06-19T12:16:50;7.95;;;3.78;;
62123;SDS011;48110;47.532;19.078;2023-06-19T12:19:54;8.20;;;3.90;;
62123;SDS011;48110;47.532;19.078;2023-06-19T12:22:59;6.78;;;4.00;;
62123;SDS011;48110;47.532;19.078;2023-06-19T12:26:03;7.68;;;4.00;;
62123;SDS011;48110;47.532;19.078;2023-06-19T12:29:07;6.18;;;4.03;;
62123;SDS011;48110;47.532;19.078;2023-06-19T12:32:11;8.35;;;4.05;;
62123;SDS011;48110;47.532;19.078;2023-06-19T12:35:15;7.65;;;3.80;;
62123;SDS011;48110;47.532;19.078;2023-06-19T12:38:20;6.75;;;4.50;;
62123;SDS011;48110;47.532;19.078;2023-06-19T12:41:24;7.50;;;4.47;;
62123;SDS011;48110;47.532;19.078;2023-06-19T12:44:28;9.73;;;4.12;;
62123;SDS011;48110;47.532;19.078;2023-06-19T12:47:35;7.10;;;4.30;;
62123;SDS011;48110;47.532;19.078;2023-06-19T12:50:39;6.35;;;4.00;;
62123;SDS011;48110;47.532;19.078;2023-06-19T12:53:43;9.68;;;4.25;;
62123;SDS011;48110;47.532;19.078;2023-06-19T12:56:47;7.90;;;4.12;;
62123;SDS011;48110;47.532;19.078;2023-06-19T12:59:54;7.35;;;3.78;;
62123;SDS011;48110;47.532;19.078;2023-06-19T13:02:57;6.57;;;3.95;;
62123;SDS011;48110;47.532;19.078;2023-06-19T13:06:01;13.60;;;4.05;;
62123;SDS011;48110;47.532;19.078;2023-06-19T13:09:05;7.18;;;4.22;;
62123;SDS011;48110;47.532;19.078;2023-06-19T13:12:10;8.55;;;4.28;;
62123;SDS011;48110;47.532;19.078;2023-06-19T13:15:13;25.35;;;4.87;;
62123;SDS011;48110;47.532;19.078;2023-06-19T13:18:18;13.27;;;4.90;;
62123;SDS011;48110;47.532;19.078;2023-06-19T13:21:23;8.10;;;4.40;;
62123;SDS011;48110;47.532;19.078;2023-06-19T13:24:28;9.43;;;4.32;;
62123;SDS011;48110;47.532;19.078;2023-06-19T13:27:32;7.53;;;4.50;;
62123;SDS011;48110;47.532;19.078;2023-06-19T13:30:38;7.62;;;4.30;;
62123;SDS011;48110;47.532;19.078;2023-06-19T13:33:42;8.45;;;5.10;;
62123;SDS011;48110;47.532;19.078;2023-06-19T13:36:47;19.92;;;4.93;;
62123;SDS011;48110;47.532;19.078;2023-06-19T13:39:52;9.73;;;4.43;;
62123;SDS011;48110;47.532;19.078;2023-06-19T13:42:57;14.93;;;4.60;;
62123;SDS011;48110;47.532;19.078;2023-06-19T13:46:05;22.45;;;4.93;;
62123;SDS011;48110;47.532;19.078;2023-06-19T13:49:11;9.45;;;5.25;;
62123;SDS011;48110;47.532;19.078;2023-06-19T13:52:16;8.73;;;5.03;;
62123;SDS011;48110;47.532;19.078;2023-06-19T13:55:22;5.85;;;5.00;;
62123;SDS011;48110;47.532;19.078;2023-06-19T13:58:27;7.57;;;5.45;;
62123;SDS011;48110;47.532;19.078;2023-06-19T14:01:32;13.95;;;5.22;;
62123;SDS011;48110;47.532;19.078;2023-06-19T14:04:37;9.55;;;5.10;;
62123;SDS011;48110;47.532;19.078;2023-06-19T14:07:41;8.32;;;5.10;;
62123;SDS011;48110;47.532;19.078;2023-06-19T14:10:47;8.77;;;4.82;;
62123;SDS011;48110;47.532;19.078;2023-06-19T14:13:51;7.55;;;5.03;;
62123;SDS011;48110;47.532;19.078;2023-06-19T14:16:55;17.08;;;4.87;;
62123;SDS011;48110;47.532;19.078;2023-06-19T14:20:01;10.93;;;4.75;;
62123;SDS011;48110;47.532;19.078;2023-06-19T14:26:13;8.60;;;5.07;;
62123;SDS011;48110;47.532;19.078;2023-06-19T14:29:17;8.48;;;4.47;;
62123;SDS011;48110;47.532;19.078;2023-06-19T14:32:22;11.43;;;5.07;;
62123;SDS011;48110;47.532;19.078;2023-06-19T14:35:28;7.20;;;4.62;;
62123;SDS011;48110;47.532;19.078;2023-06-19T14:38:34;5.65;;;4.50;;
62123;SDS011;48110;47.532;19.078;2023-06-19T14:41:38;14.68;;;5.07;;
62123;SDS011;48110;47.532;19.078;2023-06-19T14:44:44;27.10;;;5.80;;
62123;SDS011;48110;47.532;19.078;2023-06-19T14:47:49;10.75;;;5.05;;
62123;SDS011;48110;47.532;19.078;2023-06-19T14:50:54;6.43;;;4.70;;
62123;SDS011;48110;47.532;19.078;2023-06-19T14:54:00;6.00;;;4.93;;
62123;SDS011;48110;47.532;19.078;2023-06-19T14:57:05;11.02;;;5.15;;
62123;SDS011;48110;47.532;19.078;2023-06-19T15:00:11;12.80;;;4.62;;
62123;SDS011;48110;47.532;19.078;2023-06-19T15:03:18;9.57;;;4.57;;
62123;SDS011;48110;47.532;19.078;2023-06-19T15:06:23;12.75;;;5.05;;
62123;SDS011;48110;47.532;19.078;2023-06-19T15:09:29;6.65;;;4.55;;
62123;SDS011;48110;47.532;19.078;2023-06-19T15:12:35;14.25;;;4.97;;
62123;SDS011;48110;47.532;19.078;2023-06-19T15:15:40;13.23;;;4.75;;
62123;SDS011;48110;47.532;19.078;2023-06-19T15:18:47;7.87;;;4.57;;
62123;SDS011;48110;47.532;19.078;2023-06-19T15:21:53;10.82;;;4.70;;
62123;SDS011;48110;47.532;19.078;2023-06-19T15:24:58;7.10;;;4.40;;
62123;SDS011;48110;47.532;19.078;2023-06-19T15:28:04;7.87;;;4.35;;
62123;SDS011;48110;47.532;19.078;2023-06-19T15:31:10;8.63;;;4.57;;
62123;SDS011;48110;47.532;19.078;2023-06-19T15:34:15;8.43;;;5.05;;
62123;SDS011;48110;47.532;19.078;2023-06-19T15:37:21;12.05;;;4.57;;
62123;SDS011;48110;47.532;19.078;2023-06-19T15:40:30;7.30;;;4.65;;
62123;SDS011;48110;47.532;19.078;2023-06-19T15:43:38;14.38;;;4.82;;
62123;SDS011;48110;47.532;19.078;2023-06-19T15:46:44;12.48;;;4.82;;
62123;SDS011;48110;47.532;19.078;2023-06-19T15:49:48;11.77;;;4.85;;
62123;SDS011;48110;47.532;19.078;2023-06-19T15:52:54;7.10;;;4.80;;
62123;SDS011;48110;47.532;19.078;2023-06-19T15:56:00;6.65;;;4.65;;
62123;SDS011;48110;47.532;19.078;2023-06-19T15:59:05;7.43;;;4.87;;
62123;SDS011;48110;47.532;19.078;2023-06-19T16:02:11;10.32;;;4.95;;
62123;SDS011;48110;47.532;19.078;2023-06-19T16:05:18;8.68;;;4.65;;
62123;SDS011;48110;47.532;19.078;2023-06-19T16:08:25;10.00;;;5.00;;
62123;SDS011;48110;47.532;19.078;2023-06-19T16:11:31;6.28;;;5.00;;
62123;SDS011;48110;47.532;19.078;2023-06-19T16:14:38;10.55;;;6.65;;
62123;SDS011;48110;47.532;19.078;2023-06-19T16:17:44;8.43;;;4.90;;
62123;SDS011;48110;47.532;19.078;2023-06-19T16:20:50;8.27;;;5.10;;
62123;SDS011;48110;47.532;19.078;2023-06-19T16:23:56;6.90;;;5.05;;
62123;SDS011;48110;47.532;19.078;2023-06-19T16:27:02;10.55;;;5.37;;
62123;SDS011;48110;47.532;19.078;2023-06-19T16:30:10;9.60;;;4.90;;
62123;SDS011;48110;47.532;19.078;2023-06-19T16:33:16;6.65;;;5.03;;
62123;SDS011;48110;47.532;19.078;2023-06-19T16:36:23;12.63;;;5.65;;
62123;SDS011;48110;47.532;19.078;2023-06-19T16:39:29;8.32;;;5.15;;
62123;SDS011;48110;47.532;19.078;2023-06-19T16:42:35;7.07;;;4.87;;
62123;SDS011;48110;47.532;19.078;2023-06-19T16:45:41;7.93;;;5.30;;
62123;SDS011;48110;47.532;19.078;2023-06-19T16:48:49;7.47;;;4.95;;
62123;SDS011;48110;47.532;19.078;2023-06-19T16:51:53;8.68;;;5.53;;
62123;SDS011;48110;47.532;19.078;2023-06-19T16:55:00;6.65;;;5.22;;
62123;SDS011;48110;47.532;19.078;2023-06-19T16:58:04;7.10;;;5.30;;
62123;SDS011;48110;47.532;19.078;2023-06-19T17:01:12;6.03;;;5.15;;
62123;SDS011;48110;47.532;19.078;2023-06-19T17:04:19;18.67;;;5.62;;
62123;SDS011;48110;47.532;19.078;2023-06-19T17:07:26;10.15;;;5.20;;
62123;SDS011;48110;47.532;19.078;2023-06-19T17:10:33;12.05;;;5.37;;
62123;SDS011;48110;47.532;19.078;2023-06-19T17:13:40;11.35;;;5.22;;
62123;SDS011;48110;47.532;19.078;2023-06-19T17:16:46;8.98;;;5.40;;
62123;SDS011;48110;47.532;19.078;2023-06-19T17:19:51;7.35;;;5.40;;
62123;SDS011;48110;47.532;19.078;2023-06-19T17:22:58;10.73;;;5.22;;
62123;SDS011;48110;47.532;19.078;2023-06-19T17:26:04;15.38;;;5.65;;
62123;SDS011;48110;47.532;19.078;2023-06-19T17:29:10;5.75;;;5.03;;
62123;SDS011;48110;47.532;19.078;2023-06-19T17:32:17;11.27;;;5.87;;
62123;SDS011;48110;47.532;19.078;2023-06-19T17:35:22;9.35;;;4.97;;
62123;SDS011;48110;47.532;19.078;2023-06-19T17:38:30;7.40;;;5.30;;
62123;SDS011;48110;47.532;19.078;2023-06-19T17:41:34;8.88;;;5.07;;
62123;SDS011;48110;47.532;19.078;2023-06-19T17:47:50;12.95;;;5.37;;
62123;SDS011;48110;47.532;19.078;2023-06-19T17:50:56;7.30;;;5.00;;
62123;SDS011;48110;47.532;19.078;2023-06-19T17:54:02;8.63;;;5.55;;
62123;SDS011;48110;47.532;19.078;2023-06-19T17:57:10;9.25;;;5.32;;
62123;SDS011;48110;47.532;19.078;2023-06-19T18:00:16;13.95;;;5.70;;
62123;SDS011;48110;47.532;19.078;2023-06-19T18:03:24;13.32;;;5.85;;
62123;SDS011;48110;47.532;19.078;2023-06-19T18:06:30;8.95;;;5.93;;
62123;SDS011;48110;47.532;19.078;2023-06-19T18:09:40;13.60;;;5.70;;
62123;SDS011;48110;47.532;19.078;2023-06-19T18:12:51;10.93;;;5.62;;
62123;SDS011;48110;47.532;19.078;2023-06-19T18:15:58;10.60;;;5.72;;
62123;SDS011;48110;47.532;19.078;2023-06-19T18:19:15;8.40;;;5.45;;
62123;SDS011;48110;47.532;19.078;2023-06-19T18:22:21;10.98;;;5.62;;
62123;SDS011;48110;47.532;19.078;2023-06-19T18:25:28;16.10;;;5.45;;
62123;SDS011;48110;47.532;19.078;2023-06-19T18:28:34;14.57;;;5.43;;
62123;SDS011;48110;47.532;19.078;2023-06-19T18:31:40;11.57;;;5.80;;
62123;SDS011;48110;47.532;19.078;2023-06-19T18:34:48;12.57;;;5.95;;
62123;SDS011;48110;47.532;19.078;2023-06-19T18:37:55;14.65;;;5.87;;